Andersonville, Georgia
Current Conditions -  °F | °C
As of 7:15 PM on Friday 19 Dec 2014 (Local Time) from KACJ Reporting Station
Broken Clouds Broken Clouds  
Wind Chill: 54°   Ceiling: 12000
Heat Index: 54°   Visibility: 10mi
Dew Point: 41°   Wind: 6mph
Humidity: 62%   Direction: 330°NNW
Pressure: 30.15"   Gusts: NA
Location:  32.2°N, 84.14°W
Report Text: KACJ 200015Z AUTO 33005KT 10SM BKN120 12/05 A3015 RMK AO2
Loading
Personal Weather Stations






























Interactive Weather Map New forecast layout! Learn more

10-Day Weather Forecast

Advertisements
Track Severe Weather on mobile